createdAt,value
2017-11-22T00:00:50.497Z,22.25
2017-11-22T00:02:27.012Z,23.50
2017-11-22T00:04:07.072Z,20.50
2017-11-22T00:05:44.981Z,25.50
2017-11-22T00:07:22.215Z,24.75
2017-11-22T00:08:58.585Z,26.25
2017-11-22T00:10:35.561Z,21.25
2017-11-22T00:12:13.253Z,26.25
2017-11-22T00:13:49.679Z,24.00
2017-11-22T00:15:28.234Z,30.50
2017-11-22T00:17:05.956Z,27.25
2017-11-22T00:18:42.415Z,21.00
2017-11-22T00:20:18.785Z,26.25
2017-11-22T00:21:55.230Z,25.00
2017-11-22T00:23:32.548Z,24.50
2017-11-22T00:25:08.945Z,25.50
2017-11-22T00:26:45.845Z,26.00
2017-11-22T00:28:22.958Z,25.75
2017-11-22T00:30:00.708Z,26.00
2017-11-22T00:31:37.532Z,24.00
2017-11-22T00:33:16.129Z,22.75
2017-11-22T00:34:53.096Z,24.75
2017-11-22T00:36:29.879Z,23.25
2017-11-22T00:38:06.171Z,24.25
2017-11-22T00:39:44.211Z,23.50
2017-11-22T00:41:20.607Z,16.25
2017-11-22T00:42:57.646Z,23.00
2017-11-22T00:44:34.451Z,20.75
2017-11-22T00:46:11.272Z,21.75
2017-11-22T00:47:47.716Z,19.50
2017-11-22T00:49:24.639Z,21.00
2017-11-22T00:51:01.058Z,23.25
2017-11-22T00:52:37.413Z,23.00
2017-11-22T00:54:13.798Z,19.00
2017-11-22T00:55:50.724Z,19.25
2017-11-22T00:57:27.028Z,20.75
2017-11-22T00:59:03.513Z,19.25
2017-11-22T01:00:40.821Z,17.75
2017-11-22T01:02:17.786Z,19.00
2017-11-22T01:03:54.390Z,19.75
2017-11-22T01:05:30.998Z,18.75
2017-11-22T01:07:10.688Z,20.00
2017-11-22T01:08:47.724Z,19.25
2017-11-22T01:10:24.515Z,19.75
2017-11-22T01:12:01.093Z,20.00
2017-11-22T01:13:38.330Z,20.50
2017-11-22T01:15:16.808Z,19.00
2017-11-22T01:16:53.986Z,16.00
2017-11-22T01:18:30.403Z,15.25
2017-11-22T01:20:07.340Z,19.00
2017-11-22T01:21:46.426Z,15.75
2017-11-22T01:23:22.986Z,18.50
2017-11-22T01:24:59.492Z,16.50
2017-11-22T01:26:36.445Z,18.25
2017-11-22T01:28:15.119Z,16.00
2017-11-22T01:29:51.528Z,20.00
2017-11-22T01:31:27.857Z,21.50
2017-11-22T01:33:04.832Z,17.50
2017-11-22T01:34:59.653Z,16.75
2017-11-22T01:36:36.095Z,14.50
2017-11-22T01:38:12.676Z,16.25
2017-11-22T01:39:49.230Z,16.50
2017-11-22T01:41:31.649Z,19.75
2017-11-22T01:43:28.133Z,17.00
2017-11-22T01:45:05.533Z,16.00
2017-11-22T01:46:42.752Z,19.75
2017-11-22T01:48:19.525Z,18.75
2017-11-22T01:49:56.201Z,17.50
2017-11-22T01:51:32.698Z,16.00
2017-11-22T01:53:10.721Z,17.00
2017-11-22T01:54:47.215Z,20.00
2017-11-22T01:56:24.483Z,18.50
2017-11-22T01:58:00.812Z,16.00
2017-11-22T01:59:37.431Z,17.75
2017-11-22T02:01:17.042Z,14.75
2017-11-22T02:03:07.487Z,16.00
2017-11-22T02:04:44.183Z,14.75
2017-11-22T02:06:20.891Z,19.25
2017-11-22T02:07:59.210Z,14.75
2017-11-22T02:09:38.717Z,18.50
2017-11-22T02:11:15.102Z,16.25
2017-11-22T02:12:51.817Z,19.25
2017-11-22T02:14:28.175Z,17.00
2017-11-22T02:16:05.098Z,16.75
2017-11-22T02:17:41.696Z,18.25
2017-11-22T02:19:18.245Z,19.00
2017-11-22T02:20:55.562Z,15.50
2017-11-22T02:22:31.869Z,16.50
2017-11-22T02:24:08.253Z,17.00
2017-11-22T02:25:45.865Z,16.25
2017-11-22T02:27:22.209Z,17.75
2017-11-22T02:28:59.555Z,18.50
2017-11-22T02:30:36.196Z,14.00
2017-11-22T02:32:14.191Z,19.25
2017-11-22T02:33:50.653Z,18.75
2017-11-22T02:35:27.401Z,16.25
2017-11-22T02:37:03.928Z,14.25
2017-11-22T02:38:40.900Z,20.00
2017-11-22T02:40:18.480Z,16.00
2017-11-22T02:41:55.708Z,15.50
2017-11-22T02:43:32.034Z,18.00
2017-11-22T02:45:09.211Z,16.50
2017-11-22T02:46:46.089Z,15.50
2017-11-22T02:48:23.277Z,16.75
2017-11-22T02:49:59.921Z,16.50
2017-11-22T02:51:37.607Z,15.50
2017-11-22T02:53:13.950Z,16.00
2017-11-22T02:54:50.518Z,15.25
2017-11-22T02:56:27.857Z,14.25
2017-11-22T02:59:45.565Z,20.75
2017-11-22T03:01:21.894Z,15.00
2017-11-22T03:02:58.307Z,17.50
2017-11-22T03:04:35.508Z,18.75
2017-11-22T03:06:13.206Z,20.25
2017-11-22T03:07:49.554Z,17.00
2017-11-22T03:09:26.809Z,16.00
2017-11-22T03:11:04.969Z,17.75
2017-11-22T03:12:41.328Z,16.25
2017-11-22T03:14:17.544Z,16.50
2017-11-22T03:15:53.956Z,18.25
2017-11-22T03:17:31.070Z,19.50
2017-11-22T03:19:08.238Z,18.25
2017-11-22T03:20:44.582Z,17.25
2017-11-22T03:22:21.080Z,19.50
2017-11-22T03:23:57.675Z,21.50
2017-11-22T03:25:34.399Z,15.75
2017-11-22T03:27:11.263Z,21.00
2017-11-22T03:28:47.596Z,17.75
2017-11-22T03:30:26.328Z,19.50
2017-11-22T03:32:04.415Z,18.25
2017-11-22T03:33:40.728Z,17.25
2017-11-22T03:35:17.093Z,19.50
2017-11-22T03:36:53.692Z,19.00
2017-11-22T03:38:30.641Z,19.50
2017-11-22T03:40:06.955Z,22.50
2017-11-22T03:41:43.380Z,19.50
2017-11-22T03:43:20.101Z,18.25
2017-11-22T03:44:56.472Z,19.00
2017-11-22T03:46:33.442Z,16.00
2017-11-22T03:48:14.740Z,19.25
2017-11-22T03:49:57.029Z,16.75
2017-11-22T03:51:38.757Z,20.00
2017-11-22T03:53:20.112Z,19.25
2017-11-22T03:54:56.657Z,18.00
2017-11-22T03:56:33.894Z,19.00
2017-11-22T03:58:16.321Z,19.75
2017-11-22T03:59:52.695Z,19.00
2017-11-22T04:01:29.287Z,18.25
2017-11-22T04:03:10.353Z,18.50
2017-11-22T04:04:48.934Z,20.75
2017-11-22T04:06:25.263Z,20.25
2017-11-22T04:08:01.733Z,15.75
2017-11-22T04:09:37.948Z,16.00
2017-11-22T04:11:14.350Z,19.50
2017-11-22T04:12:51.131Z,20.50
2017-11-22T04:14:27.439Z,21.00
2017-11-22T04:16:04.017Z,20.25
2017-11-22T04:17:40.390Z,21.75
2017-11-22T04:19:22.043Z,20.50
2017-11-22T04:20:59.029Z,18.75
2017-11-22T04:22:36.117Z,20.00
2017-11-22T04:24:12.607Z,20.75
2017-11-22T04:25:49.017Z,20.75
2017-11-22T04:27:26.770Z,19.75
2017-11-22T04:29:03.084Z,21.00
2017-11-22T04:30:39.534Z,19.25
2017-11-22T04:32:15.944Z,20.50
2017-11-22T04:33:52.291Z,19.75
2017-11-22T04:35:29.357Z,19.00
2017-11-22T04:37:05.733Z,22.50
2017-11-22T04:38:41.988Z,19.00
2017-11-22T04:40:18.327Z,22.00
2017-11-22T04:41:55.499Z,20.25
2017-11-22T04:43:33.619Z,22.00
2017-11-22T04:45:10.200Z,17.50
2017-11-22T04:46:46.856Z,23.00
2017-11-22T04:48:23.598Z,23.50
2017-11-22T04:49:59.966Z,21.00
2017-11-22T04:51:36.850Z,20.75
2017-11-22T04:53:13.281Z,22.50
2017-11-22T04:54:49.701Z,23.25
2017-11-22T04:56:31.585Z,23.00
2017-11-22T04:58:07.899Z,25.00
2017-11-22T04:59:45.527Z,24.00
2017-11-22T05:01:24.513Z,25.00
2017-11-22T05:03:01.806Z,25.50
2017-11-22T05:04:40.564Z,24.50
2017-11-22T05:06:18.943Z,20.50
2017-11-22T05:07:55.622Z,19.75
2017-11-22T05:09:33.383Z,23.00
2017-11-22T05:11:09.929Z,24.50
2017-11-22T05:12:46.904Z,23.00
2017-11-22T05:14:23.334Z,25.25
2017-11-22T05:16:00.725Z,23.50
2017-11-22T05:17:38.148Z,23.00
2017-11-22T05:19:16.044Z,25.75
2017-11-22T05:20:52.880Z,24.50
2017-11-22T05:22:30.204Z,24.00
2017-11-22T05:25:44.174Z,24.00
2017-11-22T05:27:21.534Z,28.00
2017-11-22T05:28:58.887Z,25.75
2017-11-22T05:30:36.701Z,26.00
2017-11-22T05:32:13.231Z,26.00
2017-11-22T05:33:50.905Z,30.25
2017-11-22T05:35:27.446Z,28.00
2017-11-22T05:37:04.338Z,25.25
2017-11-22T05:38:41.140Z,29.00
2017-11-22T05:40:17.759Z,26.75
2017-11-22T05:41:55.398Z,26.50
2017-11-22T05:43:32.777Z,26.50
2017-11-22T05:45:11.629Z,26.50
2017-11-22T05:46:48.566Z,30.50
2017-11-22T05:48:27.623Z,27.25
2017-11-22T05:50:06.210Z,20.75
2017-11-22T05:51:42.905Z,26.25
2017-11-22T05:53:19.276Z,33.00
2017-11-22T05:54:56.796Z,28.00
2017-11-22T05:56:42.109Z,24.50
2017-11-22T05:58:19.702Z,27.50
2017-11-22T05:59:56.309Z,26.75
2017-11-22T06:01:34.185Z,28.25
2017-11-22T06:03:11.649Z,31.00
2017-11-22T06:04:48.921Z,30.50
2017-11-22T06:06:25.724Z,32.00
2017-11-22T06:08:03.094Z,31.75
2017-11-22T06:09:41.757Z,27.25
2017-11-22T06:11:18.143Z,30.75
2017-11-22T06:12:54.823Z,30.50
2017-11-22T06:14:32.280Z,27.75
2017-11-22T06:16:09.313Z,30.25
2017-11-22T06:17:48.006Z,31.25
2017-11-22T06:19:25.967Z,31.25
2017-11-22T06:21:02.287Z,27.75
2017-11-22T06:22:38.627Z,29.50
2017-11-22T06:24:16.664Z,30.75
2017-11-22T06:25:53.720Z,32.75
2017-11-22T06:27:30.933Z,31.75
2017-11-22T06:29:07.497Z,33.25
2017-11-22T06:30:48.184Z,29.75
2017-11-22T06:32:27.886Z,31.25
2017-11-22T06:34:05.783Z,30.75
2017-11-22T06:35:45.786Z,31.25
2017-11-22T06:37:23.991Z,26.75
2017-11-22T06:39:07.183Z,31.50
2017-11-22T06:40:44.318Z,31.50
2017-11-22T06:42:20.546Z,33.25
2017-11-22T06:43:57.836Z,32.00
2017-11-22T06:45:35.444Z,29.75
2017-11-22T06:47:11.762Z,33.50
2017-11-22T06:48:47.979Z,27.25
2017-11-22T06:50:26.949Z,33.00
2017-11-22T06:52:03.237Z,31.75
2017-11-22T06:53:41.800Z,31.50
2017-11-22T06:55:18.134Z,37.25
2017-11-22T06:56:54.436Z,33.50
2017-11-22T06:58:30.793Z,31.50
2017-11-22T07:00:10.888Z,37.00
2017-11-22T07:01:54.448Z,34.50
2017-11-22T07:04:05.244Z,36.00
2017-11-22T07:05:43.142Z,33.50
2017-11-22T07:07:25.148Z,33.25
2017-11-22T07:09:02.249Z,29.75
2017-11-22T07:10:39.346Z,33.00
2017-11-22T07:12:16.227Z,36.00
2017-11-22T07:13:56.523Z,32.50
2017-11-22T07:15:34.308Z,33.50
2017-11-22T07:17:17.039Z,30.50
2017-11-22T07:18:53.311Z,31.50
2017-11-22T07:20:30.151Z,34.00
2017-11-22T07:22:09.229Z,33.25
2017-11-22T07:23:47.932Z,33.00
2017-11-22T07:25:25.166Z,35.00
2017-11-22T07:27:03.195Z,34.75
2017-11-22T07:28:39.483Z,35.75
2017-11-22T07:30:18.627Z,33.75
2017-11-22T07:31:57.470Z,36.00
2017-11-22T07:33:34.108Z,19.75
2017-11-22T07:35:13.271Z,32.25
2017-11-22T07:36:54.573Z,32.00
2017-11-22T07:38:34.212Z,36.25
2017-11-22T07:40:12.511Z,32.50
2017-11-22T07:41:50.269Z,35.00
2017-11-22T07:43:26.720Z,34.00
2017-11-22T07:45:04.716Z,35.00
2017-11-22T07:46:42.751Z,31.00
2017-11-22T07:48:21.110Z,32.75
2017-11-22T07:49:59.328Z,35.75
2017-11-22T07:53:26.545Z,33.75
2017-11-22T07:55:03.191Z,28.75
2017-11-22T07:56:39.586Z,34.50
2017-11-22T07:58:23.973Z,31.00
2017-11-22T08:00:04.650Z,34.75
2017-11-22T08:01:43.072Z,34.75
2017-11-22T08:03:23.844Z,32.75
2017-11-22T08:05:06.583Z,34.00
2017-11-22T08:06:45.673Z,34.75
2017-11-22T08:08:23.180Z,34.25
2017-11-22T08:10:02.283Z,29.75
2017-11-22T08:11:42.274Z,34.50
2017-11-22T08:13:22.474Z,33.50
2017-11-22T08:14:59.397Z,33.75
2017-11-22T08:16:36.936Z,38.25
2017-11-22T08:18:13.705Z,33.25
2017-11-22T08:19:51.776Z,31.50
2017-11-22T08:21:29.476Z,37.25
2017-11-22T08:23:09.385Z,38.50
2017-11-22T08:24:48.585Z,32.00
2017-11-22T08:26:27.881Z,35.75
2017-11-22T08:28:05.581Z,42.00
2017-11-22T08:29:42.005Z,36.50
2017-11-22T08:31:18.514Z,34.50
2017-11-22T08:32:56.957Z,38.25
2017-11-22T08:34:33.467Z,41.00
2017-11-22T08:36:10.508Z,38.00
2017-11-22T08:37:49.100Z,36.25
2017-11-22T08:39:25.892Z,37.75
2017-11-22T08:41:02.879Z,37.00
2017-11-22T08:42:41.682Z,32.25
2017-11-22T08:44:20.881Z,38.00
2017-11-22T08:45:58.383Z,37.50
2017-11-22T08:47:34.770Z,34.75
2017-11-22T08:49:11.237Z,37.50
2017-11-22T08:50:50.364Z,35.50
2017-11-22T08:52:26.945Z,32.00
2017-11-22T08:54:09.002Z,35.75
2017-11-22T08:55:51.685Z,37.75
2017-11-22T08:57:34.619Z,34.50
2017-11-22T08:59:11.183Z,35.50
2017-11-22T09:00:48.622Z,34.75
2017-11-22T09:02:26.487Z,36.25
2017-11-22T09:04:02.818Z,36.50
2017-11-22T09:05:50.065Z,37.00
2017-11-22T09:07:35.776Z,34.00
2017-11-22T09:09:12.248Z,34.00
2017-11-22T09:10:49.368Z,33.75
2017-11-22T09:12:31.889Z,35.00
2017-11-22T09:14:09.820Z,33.25
2017-11-22T09:15:50.365Z,35.00
2017-11-22T09:17:32.098Z,32.75
2017-11-22T09:19:13.720Z,37.75
2017-11-22T09:20:53.202Z,36.25
2017-11-22T09:22:30.470Z,33.00
2017-11-22T09:24:12.685Z,35.75
2017-11-22T09:25:49.780Z,35.00
2017-11-22T09:27:32.028Z,32.25
2017-11-22T09:29:11.173Z,30.25
2017-11-22T09:30:53.708Z,35.00
2017-11-22T09:32:34.105Z,34.25
2017-11-22T09:34:16.396Z,31.75
2017-11-22T09:35:54.140Z,34.75
2017-11-22T09:37:32.996Z,32.25
2017-11-22T09:39:10.900Z,34.00
2017-11-22T09:40:47.700Z,33.25
2017-11-22T09:42:24.767Z,32.25
2017-11-22T09:44:01.356Z,31.25
2017-11-22T09:45:38.052Z,32.00
2017-11-22T09:47:16.046Z,30.25
2017-11-22T09:48:52.981Z,33.00
2017-11-22T09:50:29.732Z,27.50
2017-11-22T09:52:08.438Z,27.50
2017-11-22T09:53:45.653Z,30.25
2017-11-22T09:55:22.010Z,32.50
2017-11-22T09:56:59.060Z,32.25
2017-11-22T09:58:37.088Z,28.25
2017-11-22T10:00:20.804Z,27.00
2017-11-22T10:01:59.040Z,29.25
2017-11-22T10:03:39.068Z,31.25
2017-11-22T10:05:17.371Z,31.25
2017-11-22T10:06:55.055Z,32.00
2017-11-22T10:08:31.495Z,31.00
2017-11-22T10:10:08.219Z,33.00
2017-11-22T10:11:45.175Z,27.00
2017-11-22T10:13:23.980Z,30.00
2017-11-22T10:15:03.918Z,32.50
2017-11-22T10:16:43.344Z,28.75
2017-11-22T10:18:24.124Z,34.00
2017-11-22T10:20:04.782Z,31.75
2017-11-22T10:21:43.135Z,27.25
2017-11-22T10:23:26.164Z,30.75
2017-11-22T10:25:07.811Z,30.00
2017-11-22T10:26:50.203Z,35.50
2017-11-22T10:28:30.403Z,27.75
2017-11-22T10:30:12.434Z,32.75
2017-11-22T10:31:54.917Z,30.00
2017-11-22T10:33:36.768Z,32.00
2017-11-22T10:35:15.016Z,30.75
2017-11-22T10:36:54.570Z,33.25
2017-11-22T10:38:34.660Z,34.50
2017-11-22T10:40:12.958Z,33.50
2017-11-22T10:41:53.575Z,33.00
2017-11-22T10:43:35.049Z,31.25
2017-11-22T10:45:11.944Z,39.25
2017-11-22T10:46:48.986Z,38.50
2017-11-22T10:48:25.868Z,69.50
2017-11-22T10:50:05.734Z,33.75
2017-11-22T10:51:44.562Z,35.50
2017-11-22T10:53:21.932Z,27.25
2017-11-22T10:55:01.756Z,32.00
2017-11-22T10:56:55.916Z,34.50
2017-11-22T10:58:38.703Z,36.00
2017-11-22T11:00:18.689Z,32.00
2017-11-22T11:01:57.627Z,32.50
2017-11-22T11:03:34.363Z,33.25
2017-11-22T11:05:11.225Z,26.75
2017-11-22T11:06:49.374Z,33.50
2017-11-22T11:08:30.295Z,34.50
2017-11-22T11:10:07.100Z,35.75
2017-11-22T11:11:45.660Z,34.50
2017-11-22T11:13:23.518Z,34.50
2017-11-22T11:15:01.028Z,31.25
2017-11-22T11:16:38.009Z,33.00
2017-11-22T11:18:14.524Z,32.25
2017-11-22T11:19:54.090Z,33.75
2017-11-22T11:21:30.843Z,33.25
2017-11-22T11:23:07.954Z,28.75
2017-11-22T11:24:44.221Z,30.25
2017-11-22T11:26:24.140Z,29.25
2017-11-22T11:28:02.519Z,28.75
2017-11-22T11:29:38.829Z,27.00
2017-11-22T11:31:15.654Z,28.75
2017-11-22T11:32:55.561Z,27.50
2017-11-22T11:34:32.293Z,26.50
2017-11-22T11:36:43.277Z,29.75
2017-11-22T11:38:19.854Z,27.25
2017-11-22T11:39:57.722Z,26.25
2017-11-22T11:41:34.297Z,29.75
2017-11-22T11:43:20.840Z,25.00
2017-11-22T11:44:58.904Z,25.00
2017-11-22T11:46:36.336Z,26.00
2017-11-22T11:48:13.188Z,24.75
2017-11-22T11:49:50.658Z,27.25
2017-11-22T11:51:28.142Z,32.75
2017-11-22T11:53:05.859Z,31.25
2017-11-22T11:54:45.733Z,25.50
2017-11-22T11:56:23.881Z,25.00
2017-11-22T11:58:00.283Z,31.75
2017-11-22T11:59:37.893Z,24.25
2017-11-22T12:01:16.832Z,26.50
2017-11-22T12:02:55.449Z,28.00
2017-11-22T12:04:33.067Z,23.25
2017-11-22T12:06:09.342Z,24.25
2017-11-22T12:07:46.887Z,21.75
2017-11-22T12:09:23.085Z,27.00
2017-11-22T12:11:01.222Z,25.75
2017-11-22T12:12:38.602Z,27.25
2017-11-22T12:14:15.666Z,22.50
2017-11-22T12:15:52.838Z,27.75
2017-11-22T12:17:29.519Z,22.75
2017-11-22T12:19:08.229Z,25.75
2017-11-22T12:20:44.737Z,25.50
2017-11-22T12:26:39.737Z,22.50
2017-11-22T12:28:18.347Z,25.50
2017-11-22T12:29:55.481Z,22.75
2017-11-22T12:31:32.034Z,24.25
2017-11-22T12:33:09.228Z,25.25
2017-11-22T12:34:46.775Z,27.75
2017-11-22T12:36:23.875Z,23.50
2017-11-22T12:38:00.391Z,20.00
2017-11-22T12:39:39.505Z,27.00
2017-11-22T12:41:16.649Z,25.75
2017-11-22T12:42:53.633Z,24.50
2017-11-22T12:44:30.739Z,20.75
2017-11-22T12:46:06.984Z,22.50
2017-11-22T12:47:44.018Z,23.00
2017-11-22T12:49:22.022Z,25.00
2017-11-22T12:50:58.737Z,21.25
2017-11-22T12:52:36.695Z,29.00
2017-11-22T12:54:15.493Z,30.50
2017-11-22T12:55:53.242Z,23.50
2017-11-22T12:57:31.098Z,25.00
2017-11-22T12:59:09.649Z,25.25
2017-11-22T13:00:46.242Z,24.25
2017-11-22T13:02:22.932Z,23.00
2017-11-22T13:03:59.168Z,21.25
2017-11-22T13:05:36.142Z,23.00
2017-11-22T13:07:14.366Z,19.00
2017-11-22T13:08:53.998Z,18.75
2017-11-22T13:12:42.977Z,23.50
2017-11-22T13:14:20.546Z,21.00
2017-11-22T13:15:57.112Z,18.75
2017-11-22T13:17:33.816Z,22.75
2017-11-22T13:19:11.377Z,22.75
2017-11-22T13:20:47.874Z,22.25
2017-11-22T13:22:24.541Z,22.50
2017-11-22T13:24:01.733Z,20.50
2017-11-22T13:25:39.788Z,20.75
2017-11-22T13:27:24.504Z,22.00
2017-11-22T13:29:00.828Z,19.25
2017-11-22T13:30:37.259Z,22.75
2017-11-22T13:32:13.823Z,21.00
2017-11-22T13:33:50.386Z,20.75
2017-11-22T13:35:26.872Z,20.25
2017-11-22T13:37:04.751Z,25.00
2017-11-22T13:38:44.690Z,19.25
2017-11-22T13:40:23.897Z,20.50
2017-11-22T13:42:02.708Z,23.00
2017-11-22T13:43:41.519Z,23.25
2017-11-22T13:45:19.276Z,23.50
2017-11-22T13:46:58.623Z,19.75
2017-11-22T13:48:35.487Z,22.25
2017-11-22T13:50:12.120Z,17.25
2017-11-22T13:51:52.615Z,21.50
2017-11-22T13:53:32.920Z,22.75
2017-11-22T13:55:09.589Z,21.00
2017-11-22T13:56:49.317Z,18.50
2017-11-22T13:58:25.951Z,21.00
2017-11-22T14:00:05.455Z,18.25
2017-11-22T14:01:42.135Z,20.75
2017-11-22T14:03:20.932Z,21.00
2017-11-22T14:04:57.444Z,21.75
2017-11-22T14:06:36.144Z,21.25
2017-11-22T14:08:12.911Z,21.00
2017-11-22T14:09:51.320Z,19.50
2017-11-22T14:11:30.333Z,21.75
2017-11-22T14:13:08.222Z,17.00
2017-11-22T14:14:46.145Z,18.00
2017-11-22T14:16:22.519Z,20.00
2017-11-22T14:17:59.140Z,17.50
2017-11-22T14:19:35.995Z,20.75
2017-11-22T14:21:12.580Z,19.75
2017-11-22T14:22:50.247Z,20.00
2017-11-22T14:24:26.840Z,19.50
2017-11-22T14:26:04.704Z,27.50
2017-11-22T14:27:43.925Z,20.75
2017-11-22T14:29:24.023Z,21.00
2017-11-22T14:31:02.822Z,20.25
2017-11-22T14:32:39.490Z,22.75
2017-11-22T14:34:16.700Z,21.00
2017-11-22T14:35:53.932Z,23.25
2017-11-22T14:37:31.259Z,19.75
2017-11-22T14:39:10.713Z,23.75
2017-11-22T14:40:48.761Z,24.00
2017-11-22T14:42:27.126Z,23.00
2017-11-22T14:44:05.228Z,20.00
2017-11-22T14:45:42.914Z,20.25
2017-11-22T14:47:20.317Z,19.25
2017-11-22T14:48:56.831Z,23.00
2017-11-22T14:50:35.019Z,22.75
2017-11-22T14:52:13.750Z,22.00
2017-11-22T14:53:51.293Z,27.25
2017-11-22T14:55:31.336Z,17.25
2017-11-22T14:57:09.944Z,22.50
2017-11-22T14:58:47.354Z,22.75
2017-11-22T15:00:25.695Z,20.50
2017-11-22T15:02:02.181Z,21.25
2017-11-22T15:03:39.525Z,20.50
2017-11-22T15:05:19.805Z,21.00
2017-11-22T15:06:57.102Z,20.00
2017-11-22T15:08:34.246Z,17.00
2017-11-22T15:10:10.653Z,20.25
2017-11-22T15:11:47.635Z,19.25
2017-11-22T15:13:24.274Z,22.50
2017-11-22T15:15:01.632Z,17.25
2017-11-22T15:16:42.239Z,18.25
2017-11-22T15:18:20.001Z,18.75
2017-11-22T15:19:56.813Z,30.00
2017-11-22T15:21:33.232Z,18.50
2017-11-22T15:23:10.821Z,24.75
2017-11-22T15:24:47.399Z,21.25
2017-11-22T15:26:24.713Z,23.50
2017-11-22T15:28:01.227Z,17.50
2017-11-22T15:29:38.134Z,20.75
2017-11-22T15:31:14.655Z,19.00
2017-11-22T15:32:52.383Z,23.75
2017-11-22T15:34:28.857Z,18.00
2017-11-22T15:36:05.895Z,24.75
2017-11-22T15:37:44.035Z,20.00
2017-11-22T15:39:21.775Z,17.50
2017-11-22T15:40:58.164Z,21.00
2017-11-22T15:42:35.486Z,21.75
2017-11-22T15:44:12.697Z,23.25
2017-11-22T15:45:49.346Z,21.75
2017-11-22T15:47:29.466Z,21.25
2017-11-22T15:49:08.975Z,20.25
2017-11-22T15:51:05.965Z,22.75
2017-11-22T15:52:43.814Z,21.00
2017-11-22T15:54:20.753Z,26.00
2017-11-22T15:55:57.190Z,20.00
2017-11-22T15:57:34.374Z,20.00
2017-11-22T15:59:10.824Z,18.75
2017-11-22T16:00:48.715Z,24.50
2017-11-22T16:02:25.752Z,21.75
2017-11-22T16:04:03.136Z,21.00
2017-11-22T16:05:39.539Z,19.75
2017-11-22T16:07:16.384Z,21.50
2017-11-22T16:08:54.315Z,19.00
2017-11-22T16:10:31.547Z,22.75
2017-11-22T16:12:08.086Z,22.00
2017-11-22T16:13:45.406Z,23.25
2017-11-22T16:15:24.946Z,22.50
2017-11-22T16:17:08.026Z,22.00
2017-11-22T16:18:48.972Z,22.25
2017-11-22T16:20:35.169Z,20.50
2017-11-22T16:22:12.580Z,20.75
2017-11-22T16:23:49.842Z,22.50
2017-11-22T16:25:26.248Z,22.75
2017-11-22T16:27:03.201Z,23.25
2017-11-22T16:28:40.908Z,24.00
2017-11-22T16:30:19.156Z,27.25
2017-11-22T16:31:56.492Z,24.00
2017-11-22T16:33:33.486Z,24.25
2017-11-22T16:35:09.978Z,25.00
2017-11-22T16:36:46.555Z,20.25
2017-11-22T16:38:23.024Z,19.25
2017-11-22T16:39:59.951Z,22.50
2017-11-22T16:41:37.234Z,22.75
2017-11-22T16:43:15.335Z,21.50
2017-11-22T16:44:53.783Z,23.75
2017-11-22T16:46:32.421Z,25.50
2017-11-22T16:48:08.797Z,20.50
2017-11-22T16:49:46.710Z,33.00
2017-11-22T16:51:24.697Z,28.00
2017-11-22T16:53:02.186Z,26.00
2017-11-22T16:54:40.901Z,26.25
2017-11-22T16:56:20.956Z,25.00
2017-11-22T16:58:03.171Z,19.75
2017-11-22T16:59:45.672Z,26.00
2017-11-22T17:01:22.576Z,24.25
2017-11-22T17:03:02.113Z,28.50
2017-11-22T17:04:39.393Z,25.00
2017-11-22T17:06:16.402Z,30.25
2017-11-22T17:07:55.783Z,34.50
2017-11-22T17:09:38.601Z,26.50
2017-11-22T17:11:15.936Z,25.00
2017-11-22T17:12:55.080Z,26.00
2017-11-22T17:14:33.079Z,27.00
2017-11-22T17:16:10.058Z,22.50
2017-11-22T17:17:48.394Z,22.75
2017-11-22T17:19:25.596Z,28.75
2017-11-22T17:21:03.932Z,29.00
2017-11-22T17:22:42.764Z,29.50
2017-11-22T17:24:20.825Z,30.50
2017-11-22T17:25:57.954Z,13.50
2017-11-22T17:27:35.274Z,31.25
2017-11-22T17:29:12.913Z,24.00
2017-11-22T17:30:49.519Z,26.00
2017-11-22T17:32:26.385Z,26.00
2017-11-22T17:34:02.993Z,27.50
2017-11-22T17:35:40.902Z,19.75
2017-11-22T17:37:18.454Z,26.75
2017-11-22T17:38:55.655Z,31.50
2017-11-22T17:40:33.977Z,32.75
2017-11-22T17:42:12.728Z,28.75
2017-11-22T17:43:52.988Z,25.50
2017-11-22T17:45:33.015Z,26.75
2017-11-22T17:47:09.678Z,31.25
2017-11-22T17:48:49.554Z,26.50
2017-11-22T17:50:28.581Z,27.50
2017-11-22T17:52:08.207Z,28.00
2017-11-22T17:53:45.980Z,30.00
2017-11-22T17:55:25.719Z,27.00
2017-11-22T17:57:05.953Z,27.50
2017-11-22T17:58:42.634Z,27.50
2017-11-22T18:00:30.185Z,28.50
2017-11-22T18:02:09.936Z,33.25
2017-11-22T18:03:47.463Z,35.75
2017-11-22T18:05:26.088Z,26.00
2017-11-22T18:07:03.356Z,29.00
2017-11-22T18:08:43.040Z,28.25
2017-11-22T18:10:23.509Z,25.00
2017-11-22T18:12:02.899Z,25.75
2017-11-22T18:13:41.692Z,27.25
2017-11-22T18:15:24.451Z,23.50
2017-11-22T18:17:01.818Z,37.50
2017-11-22T18:18:39.174Z,34.25
2017-11-22T18:20:17.228Z,26.50
2017-11-22T18:21:57.432Z,31.00
2017-11-22T18:23:37.277Z,30.00
2017-11-22T18:25:20.756Z,32.00
2017-11-22T18:26:57.997Z,22.00
2017-11-22T18:28:41.317Z,27.00
2017-11-22T18:30:24.198Z,25.00
2017-11-22T18:32:03.988Z,29.75
2017-11-22T18:33:42.276Z,24.25
2017-11-22T18:35:21.165Z,23.00
2017-11-22T18:36:59.540Z,29.25
2017-11-22T18:38:38.420Z,28.75
2017-11-22T18:40:16.448Z,28.25
2017-11-22T18:41:55.719Z,28.50
2017-11-22T18:43:32.917Z,27.25
2017-11-22T18:45:09.326Z,25.00
2017-11-22T18:46:48.636Z,29.50
2017-11-22T18:48:31.462Z,29.00
2017-11-22T18:50:12.444Z,30.00
2017-11-22T18:51:52.583Z,23.50
2017-11-22T18:53:32.075Z,31.75
2017-11-22T18:55:09.035Z,28.75
2017-11-22T18:56:49.159Z,30.50
2017-11-22T18:58:40.265Z,24.50
2017-11-22T19:00:26.641Z,23.50
2017-11-22T19:02:03.953Z,20.50
2017-11-22T19:03:41.761Z,25.50
2017-11-22T19:05:19.811Z,26.00
2017-11-22T19:06:57.678Z,30.00
2017-11-22T19:08:39.763Z,26.50
2017-11-22T19:10:20.155Z,27.25
2017-11-22T19:11:59.140Z,24.50
2017-11-22T19:13:39.727Z,25.75
2017-11-22T19:15:20.436Z,26.00
2017-11-22T19:17:02.239Z,23.75
2017-11-22T19:18:43.442Z,29.25
2017-11-22T19:20:24.897Z,27.25
2017-11-22T19:22:05.812Z,37.50
2017-11-22T19:23:43.309Z,36.50
2017-11-22T19:25:20.997Z,34.00
2017-11-22T19:27:07.923Z,31.50
2017-11-22T19:28:47.796Z,32.75
2017-11-22T19:30:30.455Z,25.75
2017-11-22T19:32:08.341Z,26.75
2017-11-22T19:34:00.957Z,25.00
2017-11-22T19:35:38.543Z,23.00
2017-11-22T19:37:19.591Z,25.00
2017-11-22T19:38:57.770Z,36.75
2017-11-22T19:40:35.699Z,35.25
2017-11-22T19:42:16.691Z,18.00
2017-11-22T19:43:56.621Z,20.50
2017-11-22T19:45:36.909Z,9.50
2017-11-22T19:47:18.392Z,18.75
2017-11-22T19:48:56.951Z,8.00
2017-11-22T19:50:37.955Z,13.00
2017-11-22T19:52:15.872Z,14.00
2017-11-22T19:53:52.998Z,9.25
2017-11-22T19:55:29.398Z,22.00
2017-11-22T19:57:06.492Z,13.25
2017-11-22T19:58:45.310Z,6.00
2017-11-22T20:00:28.229Z,16.75
2017-11-22T20:02:06.164Z,9.00
2017-11-22T20:03:44.421Z,8.50
2017-11-22T20:05:23.061Z,13.25
2017-11-22T20:07:13.035Z,15.75
2017-11-22T20:08:52.363Z,11.50
2017-11-22T20:10:29.629Z,5.50
2017-11-22T20:12:06.841Z,11.00
2017-11-22T20:13:46.698Z,12.25
2017-11-22T20:15:34.952Z,18.25
2017-11-22T20:17:12.566Z,12.00
2017-11-22T20:18:53.371Z,9.75
2017-11-22T20:20:33.324Z,14.50
2017-11-22T20:22:11.985Z,13.25
2017-11-22T20:23:50.892Z,21.50
2017-11-22T20:25:30.724Z,7.25
2017-11-22T20:27:08.894Z,9.75
2017-11-22T20:28:49.598Z,16.00
2017-11-22T20:30:29.558Z,10.50
2017-11-22T20:32:08.222Z,14.00
2017-11-22T20:33:48.588Z,13.50
2017-11-22T20:35:26.089Z,14.00
2017-11-22T20:37:03.750Z,13.75
2017-11-22T20:38:46.886Z,13.50
2017-11-22T20:40:27.040Z,19.75
2017-11-22T20:42:08.474Z,13.00
2017-11-22T20:43:46.909Z,13.75
2017-11-22T20:45:25.400Z,15.00
2017-11-22T20:47:03.598Z,17.50
2017-11-22T20:48:40.521Z,16.25
2017-11-22T20:50:17.858Z,14.75
2017-11-22T20:51:56.012Z,18.75
2017-11-22T20:53:35.374Z,15.25
2017-11-22T20:55:13.703Z,11.00
2017-11-22T20:56:51.429Z,15.75
2017-11-22T20:58:28.312Z,9.00
2017-11-22T21:00:21.495Z,16.50
2017-11-22T21:02:02.400Z,16.00
2017-11-22T21:03:39.820Z,17.50
2017-11-22T21:05:20.314Z,21.25
2017-11-22T21:06:57.180Z,28.25
2017-11-22T21:08:37.454Z,19.00
2017-11-22T21:10:15.507Z,13.50
2017-11-22T21:11:55.292Z,11.25
2017-11-22T21:13:32.888Z,17.75
2017-11-22T21:15:17.705Z,14.75
2017-11-22T21:16:55.160Z,14.00
2017-11-22T21:18:32.076Z,15.00
2017-11-22T21:20:10.720Z,6.75